岡山グライダークラブ活動状況掲示板あなたは無料カウンター人目の訪問者です

岡山グライダークラブ
岡山市浦安南町639-1 岡南飛行場
 使用機:シャイベ式 SF25C型 ファルケ   JA2330
      ヴァレンティン式17E型 タイフーン  JA2342
 練習日:毎日曜日  クラブルーム:電話 086-265-1810
この掲示板は岡山グライダークラブの活動状況をお知らせする掲示板です。
!!!この掲示板は投稿規制をしています。!!!
クラブ関連各種情報は 岡山グライダークラブクラブルーム      を       .
  ブリーフイング情報は  岡山グライダークラブブリーフィングルーム  をご覧下さい。 .
※写真はクリックすると拡大して見ることが出来ます。
岡南飛行場へのアクセス等は 岡南飛行場管理事務所 をご覧ください。
クラブの ホームページ ができました。

 
05月25日
by OGC at 2020/5/24(日) 23:18:51 No.20200524231348  削除コメント
1024 x 768 x 62,368バイト
No.1

05月24日
本日の参加者
  会員      12名
  その他      0名


@本日の様子




METAR
RJOB 240000Z 09004KT 050V130 9999 FEW020 SCT040 22/17 Q1013
RJOT 240000Z 02005KT 340V080 9999 FEW025 23/17 Q1012
RJOA 240000Z 13003KT 040V210 9999 FEW025 21/15 Q1013
TAF
RJOB 232307Z 2400/2506 13008KT 9999 FEW025 SCT040
     BECMG 2421/2500 20007KT
RJOT 232308Z 2400/2506 07005KT 9999 FEW025 SCT040
     BECMG 2403/2405 27007KT
     BECMG 2410/2412 15006KT
     BECMG 2421/2500 28005KT
RJOA 232309Z 2400/2506 15005KT 9999 FEW025 SCT040
     BECMG 2409/2411 32005KTT

新型コロナ対策で活動を自粛していましたが、近隣府県の緊急事態宣言の解除を受け、本日、予防対策を講じた上で活動を再開いたしました。
活動自粛期間が長かったため、機体の入念な点検、整備後、試験フライトを行い、機体の健全性の確認を行いました。

解散    18:30

1番機  10:55離陸 撤収機  17:50着陸 

SF25C JA2330 ファルケ     11Flt.3h15min  
17E   JA2342 タイフーン    03Flt.1h05min  
合計                    14Flt.4h20min

    << 戻る || ホームページ || 最新の掲示板へ